Crew | Aerofun Virtual



 METAR AND TAF INFORMATION
METAR FOR GCTS
ADDS - METARS form results

(1048 UTC 20 April 2019)
Data provider http://aviationweather.gov/metar/data/
 
METAR text: GCTS 201030Z 24005KT 200V290 9999 SCT035 BKN045 19/10 Q1018 NOSIG
Conditions at: GCTS (TENERIFE SUR/REI, ES) observed 1030 UTC 20 April 2019
Temperature: 19.0°C (66°F)
Dewpoint: 10.0°C (50°F) [RH = 56%]
Pressure (altimeter): 30.06 inches Hg (1018.0 mb)
Winds: from the WSW (240 degrees) at 6 MPH (5 knots; 2.6 m/s)
Visibility: 6 or more miles (10+ km)
Ceiling: 4500 feet AGL
Clouds: scattered clouds at 3500 feet AGL
broken clouds at 4500 feet AGL
Weather: no significant weather observed at this time

METAR text: GCTS 201000Z 22006KT 170V250 9999 SCT032 BKN045 19/11 Q1018 NOSIG
Conditions at: GCTS (TENERIFE SUR/REI, ES) observed 1000 UTC 20 April 2019
Temperature: 19.0°C (66°F)
Dewpoint: 11.0°C (52°F) [RH = 60%]
Pressure (altimeter): 30.06 inches Hg (1018.0 mb)
Winds: from the SW (220 degrees) at 7 MPH (6 knots; 3.1 m/s)
Visibility: 6 or more miles (10+ km)
Ceiling: 4500 feet AGL
Clouds: scattered clouds at 3200 feet AGL
broken clouds at 4500 feet AGL
Weather: no significant weather observed at this time

Forecast for: GCTS (TENERIFE SUR/REI, ES)
Text: TAF GCTS 200800Z 2009/2109 31006KT 9999 SCT035 TX23/2014Z TN17/2106Z
Forecast period: 0900 UTC 20 April 2019 to 0900 UTC 21 April 2019
Forecast type: FROM: standard forecast or significant change
Winds: from the NW (310 degrees) at 7 MPH (6 knots; 3.1 m/s)
Visibility: 6 or more miles 10+ km)
Ceiling: at least 12,000 feet AGL
Clouds: scattered clouds at 3500 feet AGL
Weather: no significant weather forecast for this period
Text: PROB40
Forecast period: 0900 to 1600 UTC 20 April 2019
Forecast type: TEMPORARY: The following changes expected for less than half the time period
Winds: from the ENE (70 degrees) at 15 MPH (13 knots; 6.7 m/s)
Visibility: missing
Ceiling: unknown
Clouds: missing
Weather: no significant weather forecast for this period

 AIRPORT MAP

 RUNWAY INFORMATION
Runway 08 Runway length 10499 ft Runway width 148 ft
Runway elevation 187 ft Runway displaced threshold 0 ft Runway heading 69
Runway 26 Runway length 10499 ft Runway width 148 ft
Runway elevation 209 ft Runway displaced threshold 0 ft Runway heading 249

 AIRPORT FREQUENCIES
Type APP Name APP Frequency 120.3 MHZ
Type ATIS Name ATIS Frequency 118.675 MHZ
Type GND Name GND Frequency 121.9 MHZ
Type TWR Name TWR Frequency 119 MHZ

 AIRPORT NEAR NAVIGATION AIDS
Type NDB Name Tenerife Sur Frequency 317 KHZ
Type VOR-DME Name Tenerife Sur Frequency 116400 KHZ